createdAt,value
2023-05-07T00:01:18.068Z,23.54
2023-05-07T00:03:45.466Z,23.61
2023-05-07T00:06:13.804Z,23.71
2023-05-07T00:08:40.648Z,23.45
2023-05-07T00:11:07.552Z,23.58
2023-05-07T00:13:36.696Z,23.68
2023-05-07T00:16:04.572Z,23.66
2023-05-07T00:18:31.612Z,23.47
2023-05-07T00:20:58.743Z,23.33
2023-05-07T00:23:25.623Z,23.36
2023-05-07T00:25:52.553Z,23.41
2023-05-07T00:28:19.421Z,23.45
2023-05-07T00:30:46.236Z,22.90
2023-05-07T00:33:13.038Z,22.90
2023-05-07T00:35:39.939Z,23.49
2023-05-07T00:38:06.838Z,23.27
2023-05-07T00:40:33.825Z,23.23
2023-05-07T00:43:01.132Z,23.28
2023-05-07T00:45:28.749Z,23.36
2023-05-07T00:47:57.071Z,23.19
2023-05-07T00:50:24.091Z,23.21
2023-05-07T00:52:50.939Z,23.24
2023-05-07T00:55:17.781Z,23.38
2023-05-07T00:57:44.805Z,23.43
2023-05-07T01:00:14.102Z,23.57
2023-05-07T01:02:41.698Z,23.78
2023-05-07T01:05:10.636Z,23.76
2023-05-07T01:07:38.355Z,23.82
2023-05-07T01:10:06.893Z,23.98
2023-05-07T01:12:33.902Z,24.20
2023-05-07T01:15:00.916Z,24.04
2023-05-07T01:17:27.817Z,24.09
2023-05-07T01:19:55.644Z,23.95
2023-05-07T01:22:33.625Z,23.85
2023-05-07T01:25:02.752Z,23.64
2023-05-07T01:27:30.194Z,23.32
2023-05-07T01:29:57.095Z,23.12
2023-05-07T01:32:49.404Z,23.10
2023-05-07T01:35:21.325Z,23.02
2023-05-07T01:37:48.689Z,23.14
2023-05-07T01:40:15.556Z,23.38
2023-05-07T01:42:43.294Z,23.44
2023-05-07T01:45:11.080Z,23.34
2023-05-07T01:47:38.399Z,22.73
2023-05-07T01:50:07.441Z,22.82
2023-05-07T01:52:34.668Z,22.94
2023-05-07T01:55:01.535Z,22.88
2023-05-07T01:57:28.650Z,23.03
2023-05-07T01:59:55.959Z,23.13
2023-05-07T02:02:23.141Z,23.75
2023-05-07T02:04:51.282Z,24.62
2023-05-07T02:07:18.926Z,24.54
2023-05-07T02:09:46.046Z,24.14
2023-05-07T02:12:13.153Z,24.19
2023-05-07T02:14:40.039Z,24.28
2023-05-07T02:17:07.145Z,24.21
2023-05-07T02:19:34.025Z,24.17
2023-05-07T02:22:02.240Z,23.97
2023-05-07T02:24:31.339Z,23.97
2023-05-07T02:26:58.416Z,23.97
2023-05-07T02:29:26.410Z,23.94
2023-05-07T02:31:54.230Z,23.92
2023-05-07T02:34:21.212Z,23.97
2023-05-07T02:36:48.223Z,24.23
2023-05-07T02:39:18.012Z,24.14
2023-05-07T02:41:44.868Z,24.21
2023-05-07T02:44:12.016Z,24.28
2023-05-07T02:46:39.284Z,24.67
2023-05-07T02:49:09.062Z,24.94
2023-05-07T02:51:36.167Z,24.88
2023-05-07T02:54:03.897Z,24.51
2023-05-07T02:56:31.554Z,24.43
2023-05-07T02:58:58.960Z,23.88
2023-05-07T03:01:27.805Z,23.99
2023-05-07T03:04:02.434Z,24.07
2023-05-07T03:06:29.386Z,23.77
2023-05-07T03:08:56.238Z,23.26
2023-05-07T03:11:23.131Z,23.52
2023-05-07T03:13:50.726Z,23.46
2023-05-07T03:16:18.356Z,23.45
2023-05-07T03:18:45.468Z,23.28
2023-05-07T03:21:12.458Z,23.42
2023-05-07T03:23:39.945Z,23.65
2023-05-07T03:26:06.742Z,23.65
2023-05-07T03:28:33.804Z,24.15
2023-05-07T03:31:02.526Z,24.16
2023-05-07T03:33:30.526Z,24.40
2023-05-07T03:35:57.522Z,24.79
2023-05-07T03:38:25.432Z,24.93
2023-05-07T03:40:52.353Z,25.14
2023-05-07T03:43:19.247Z,25.39
2023-05-07T03:45:50.470Z,25.35
2023-05-07T03:48:21.376Z,25.36
2023-05-07T03:50:49.003Z,25.81
2023-05-07T03:53:16.424Z,26.12
2023-05-07T03:55:43.414Z,26.22
2023-05-07T03:58:10.408Z,26.19
2023-05-07T04:00:39.598Z,26.56
2023-05-07T04:03:14.130Z,26.62
2023-05-07T04:05:41.389Z,26.73
2023-05-07T04:08:08.314Z,26.98
2023-05-07T04:10:40.442Z,27.04
2023-05-07T04:13:10.568Z,26.89
2023-05-07T04:15:37.641Z,26.92
2023-05-07T04:18:07.797Z,26.99
2023-05-07T04:20:37.408Z,27.01
2023-05-07T04:23:05.434Z,27.04
2023-05-07T04:25:32.845Z,27.03
2023-05-07T04:28:07.154Z,27.02
2023-05-07T04:30:34.328Z,27.07
2023-05-07T04:33:03.176Z,27.14
2023-05-07T04:35:30.598Z,27.10
2023-05-07T04:37:58.624Z,27.23
2023-05-07T04:40:25.747Z,27.18
2023-05-07T04:42:54.170Z,26.99
2023-05-07T04:45:22.102Z,27.21
2023-05-07T04:47:49.018Z,27.44
2023-05-07T04:50:16.101Z,27.45
2023-05-07T04:52:43.451Z,27.30
2023-05-07T04:55:11.043Z,27.20
2023-05-07T04:57:41.866Z,27.09
2023-05-07T05:00:11.140Z,27.22
2023-05-07T05:02:38.659Z,27.07
2023-05-07T05:05:07.004Z,27.09
2023-05-07T05:07:33.972Z,27.04
2023-05-07T05:10:00.914Z,27.22
2023-05-07T05:12:27.861Z,27.08
2023-05-07T05:14:55.294Z,26.82
2023-05-07T05:17:22.205Z,27.11
2023-05-07T05:19:49.094Z,27.20
2023-05-07T05:22:16.389Z,27.17
2023-05-07T05:24:43.426Z,27.16
2023-05-07T05:27:10.302Z,26.91
2023-05-07T05:29:37.401Z,26.71
2023-05-07T05:32:04.522Z,27.01
2023-05-07T05:34:31.730Z,27.04
2023-05-07T05:37:00.318Z,26.87
2023-05-07T05:39:27.368Z,26.85
2023-05-07T05:41:54.267Z,26.71
2023-05-07T05:44:21.750Z,27.09
2023-05-07T05:46:50.702Z,27.41
2023-05-07T05:49:17.782Z,27.09
2023-05-07T05:51:44.929Z,26.89
2023-05-07T05:54:12.468Z,26.98
2023-05-07T05:56:39.370Z,27.32
2023-05-07T05:59:06.464Z,27.20
2023-05-07T06:01:34.193Z,27.16
2023-05-07T06:04:02.339Z,27.48
2023-05-07T06:06:30.159Z,27.36
2023-05-07T06:08:57.256Z,26.94
2023-05-07T06:11:31.644Z,26.85
2023-05-07T06:13:58.655Z,26.90
2023-05-07T06:16:26.749Z,26.73
2023-05-07T06:18:53.606Z,26.63
2023-05-07T06:21:20.624Z,26.57
2023-05-07T06:23:48.415Z,26.71
2023-05-07T06:26:15.418Z,26.85
2023-05-07T06:28:43.780Z,26.58
2023-05-07T06:31:24.204Z,26.21
2023-05-07T06:33:58.014Z,26.29
2023-05-07T06:36:28.297Z,26.00
2023-05-07T06:38:56.724Z,26.06
2023-05-07T06:41:23.590Z,25.83
2023-05-07T06:43:50.550Z,26.12
2023-05-07T06:46:28.357Z,25.70
2023-05-07T06:48:55.418Z,25.78
2023-05-07T06:51:22.254Z,26.17
2023-05-07T06:53:49.612Z,26.22
2023-05-07T06:56:16.432Z,24.56
2023-05-07T06:58:43.662Z,24.31
2023-05-07T07:01:10.986Z,24.52
2023-05-07T07:03:38.196Z,24.60
2023-05-07T07:06:05.582Z,24.86
2023-05-07T07:08:34.552Z,24.30
2023-05-07T07:11:02.142Z,24.00
2023-05-07T07:13:32.498Z,23.76
2023-05-07T07:15:59.792Z,23.91
2023-05-07T07:18:26.861Z,24.23
2023-05-07T07:20:54.495Z,23.73
2023-05-07T07:23:21.595Z,23.32
2023-05-07T07:25:48.833Z,23.60
2023-05-07T07:28:15.700Z,23.76
2023-05-07T07:30:42.798Z,23.69
2023-05-07T07:33:10.759Z,23.38
2023-05-07T07:35:38.534Z,23.06
2023-05-07T07:38:06.403Z,22.78
2023-05-07T07:40:35.498Z,22.86
2023-05-07T07:43:02.966Z,22.88
2023-05-07T07:45:30.287Z,22.81
2023-05-07T07:47:57.206Z,23.04
2023-05-07T07:50:36.074Z,23.71
2023-05-07T07:53:10.502Z,23.36
2023-05-07T07:55:41.261Z,23.52
2023-05-07T07:58:08.335Z,22.72
2023-05-07T08:00:35.451Z,23.03
2023-05-07T08:03:04.324Z,22.93
2023-05-07T08:05:34.056Z,22.68
2023-05-07T08:08:00.939Z,22.79
2023-05-07T08:10:30.931Z,22.60
2023-05-07T08:13:05.137Z,22.61
2023-05-07T08:15:32.459Z,22.89
2023-05-07T08:18:01.389Z,22.68
2023-05-07T08:20:29.819Z,22.23
2023-05-07T08:22:57.528Z,22.33
2023-05-07T08:25:24.895Z,22.97
2023-05-07T08:27:51.963Z,22.45
2023-05-07T08:30:18.978Z,22.11
2023-05-07T08:32:46.098Z,22.17
2023-05-07T08:35:13.084Z,22.06
2023-05-07T08:37:40.080Z,21.47
2023-05-07T08:40:10.220Z,20.99
2023-05-07T08:42:39.067Z,21.06
2023-05-07T08:45:10.606Z,21.21
2023-05-07T08:47:47.595Z,21.39
2023-05-07T08:50:15.646Z,21.14
2023-05-07T08:52:43.096Z,21.97
2023-05-07T08:55:11.533Z,22.05
2023-05-07T08:57:40.147Z,21.93
2023-05-07T09:00:09.360Z,22.10
2023-05-07T09:02:38.097Z,21.77
2023-05-07T09:05:06.545Z,22.02
2023-05-07T09:07:33.993Z,21.96
2023-05-07T09:10:05.583Z,22.08
2023-05-07T09:12:33.235Z,22.32
2023-05-07T09:15:01.210Z,21.90
2023-05-07T09:17:29.508Z,21.83
2023-05-07T09:19:56.632Z,21.73
2023-05-07T09:22:23.539Z,21.93
2023-05-07T09:24:56.057Z,21.78
2023-05-07T09:27:26.270Z,21.94
2023-05-07T09:29:53.925Z,21.85
2023-05-07T09:32:20.955Z,22.18
2023-05-07T09:34:48.533Z,22.04
2023-05-07T09:37:15.836Z,22.28
2023-05-07T09:39:47.637Z,22.46
2023-05-07T09:42:18.328Z,22.19
2023-05-07T09:44:46.101Z,22.05
2023-05-07T09:47:19.661Z,21.92
2023-05-07T09:49:49.136Z,22.23
2023-05-07T09:52:18.903Z,22.12
2023-05-07T09:54:49.526Z,22.02
2023-05-07T09:57:17.385Z,22.34
2023-05-07T09:59:46.113Z,22.29
2023-05-07T10:02:15.485Z,22.61
2023-05-07T10:04:48.357Z,22.12
2023-05-07T10:07:17.524Z,22.52
2023-05-07T10:09:48.845Z,22.03
2023-05-07T10:12:23.463Z,22.32
2023-05-07T10:14:50.988Z,22.11
2023-05-07T10:17:24.703Z,21.51
2023-05-07T10:19:52.215Z,21.30
2023-05-07T10:22:19.276Z,21.09
2023-05-07T10:24:46.520Z,20.75
2023-05-07T10:27:16.003Z,20.66
2023-05-07T10:30:07.842Z,21.10
2023-05-07T10:32:47.209Z,20.94
2023-05-07T10:35:24.357Z,20.27
2023-05-07T10:37:51.870Z,20.55
2023-05-07T10:40:21.589Z,20.87
2023-05-07T10:43:15.344Z,21.26
2023-05-07T10:46:19.666Z,20.96
2023-05-07T10:49:04.546Z,20.75
2023-05-07T10:52:17.491Z,20.70
2023-05-07T10:55:21.131Z,20.40
2023-05-07T10:57:57.552Z,20.39
2023-05-07T11:03:01.510Z,20.76
2023-05-07T11:05:43.081Z,20.92
2023-05-07T11:08:24.355Z,20.35
2023-05-07T11:10:59.750Z,20.03
2023-05-07T11:13:46.236Z,20.46
2023-05-07T11:16:34.131Z,20.76
2023-05-07T11:19:09.678Z,20.21
2023-05-07T11:21:42.591Z,20.35
2023-05-07T11:24:18.633Z,20.07
2023-05-07T11:26:52.741Z,19.68
2023-05-07T11:29:23.968Z,19.84
2023-05-07T11:31:56.433Z,19.81
2023-05-07T11:34:26.236Z,20.11
2023-05-07T11:36:54.214Z,20.32
2023-05-07T11:39:32.579Z,20.60
2023-05-07T11:42:03.326Z,20.70
2023-05-07T11:44:44.290Z,20.35
2023-05-07T11:47:13.789Z,20.40
2023-05-07T11:49:41.832Z,20.19
2023-05-07T11:52:09.033Z,20.35
2023-05-07T11:54:38.055Z,20.14
2023-05-07T11:57:05.392Z,19.64
2023-05-07T11:59:39.824Z,19.97
2023-05-07T12:02:07.686Z,19.85
2023-05-07T12:04:34.756Z,19.71
2023-05-07T12:07:03.505Z,20.09
2023-05-07T12:09:30.932Z,20.07
2023-05-07T12:14:16.972Z,21.03
2023-05-07T12:16:44.084Z,20.17
2023-05-07T12:19:15.731Z,19.61
2023-05-07T12:21:43.072Z,19.26
2023-05-07T12:24:10.088Z,19.68
2023-05-07T12:26:41.836Z,19.62
2023-05-07T12:29:46.628Z,19.65
2023-05-07T12:32:15.399Z,19.98
2023-05-07T12:34:45.292Z,20.16
2023-05-07T12:37:13.273Z,19.88
2023-05-07T12:39:49.440Z,19.81
2023-05-07T12:42:17.063Z,19.79
2023-05-07T12:44:46.397Z,19.42
2023-05-07T12:47:13.419Z,19.34
2023-05-07T12:49:41.431Z,19.50
2023-05-07T12:52:08.295Z,19.93
2023-05-07T12:54:37.599Z,19.84
2023-05-07T12:57:08.650Z,19.30
2023-05-07T12:59:42.076Z,19.26
2023-05-07T13:02:09.336Z,19.51
2023-05-07T13:04:37.814Z,19.69
2023-05-07T13:07:05.010Z,19.93
2023-05-07T13:09:31.820Z,19.47
2023-05-07T13:12:01.888Z,19.18
2023-05-07T13:14:29.196Z,19.37
2023-05-07T13:16:56.362Z,19.37
2023-05-07T13:19:23.281Z,19.50
2023-05-07T13:21:50.332Z,19.57
2023-05-07T13:24:17.068Z,19.98
2023-05-07T13:26:46.018Z,19.91
2023-05-07T13:29:13.417Z,19.65
2023-05-07T13:31:43.294Z,19.88
2023-05-07T13:34:11.079Z,18.93
2023-05-07T13:36:40.150Z,19.42
2023-05-07T13:39:07.076Z,19.03
2023-05-07T13:41:34.191Z,19.24
2023-05-07T13:44:01.038Z,19.18
2023-05-07T13:46:28.093Z,18.91
2023-05-07T13:48:55.133Z,19.04
2023-05-07T13:51:22.461Z,18.83
2023-05-07T13:53:49.330Z,18.77
2023-05-07T13:56:16.290Z,19.00
2023-05-07T13:58:56.432Z,19.21
2023-05-07T14:01:26.809Z,19.47
2023-05-07T14:03:54.094Z,19.55
2023-05-07T14:06:22.332Z,19.32
2023-05-07T14:08:49.556Z,19.11
2023-05-07T14:11:16.597Z,19.13
2023-05-07T14:13:46.015Z,19.16
2023-05-07T14:16:12.938Z,19.39
2023-05-07T14:18:39.902Z,19.30
2023-05-07T14:21:07.557Z,19.17
2023-05-07T14:23:34.740Z,19.34
2023-05-07T14:26:01.668Z,19.32
2023-05-07T14:28:28.918Z,19.21
2023-05-07T14:30:55.893Z,19.21
2023-05-07T14:33:24.062Z,19.08
2023-05-07T14:35:51.469Z,19.15
2023-05-07T14:38:18.513Z,19.11
2023-05-07T14:40:45.549Z,19.15
2023-05-07T14:43:12.535Z,19.04
2023-05-07T14:45:40.129Z,18.91
2023-05-07T14:48:06.978Z,18.94
2023-05-07T14:50:33.998Z,18.91
2023-05-07T14:53:01.355Z,18.92
2023-05-07T14:55:28.580Z,18.86
2023-05-07T14:57:56.273Z,18.44
2023-05-07T15:00:23.439Z,18.43
2023-05-07T15:02:50.540Z,18.45
2023-05-07T15:05:19.647Z,18.68
2023-05-07T15:07:47.383Z,18.55
2023-05-07T15:10:14.792Z,18.65
2023-05-07T15:12:42.521Z,18.47
2023-05-07T15:15:10.466Z,18.35
2023-05-07T15:17:37.449Z,18.47
2023-05-07T15:20:05.573Z,18.28
2023-05-07T15:22:32.918Z,18.48
2023-05-07T15:24:59.869Z,18.28
2023-05-07T15:27:27.203Z,18.39
2023-05-07T15:29:54.180Z,18.48
2023-05-07T15:32:21.124Z,18.49
2023-05-07T15:34:47.977Z,18.58
2023-05-07T15:37:15.010Z,18.57
2023-05-07T15:39:41.931Z,18.45
2023-05-07T15:42:08.918Z,18.51
2023-05-07T15:44:36.143Z,18.56
2023-05-07T15:47:03.188Z,18.48
2023-05-07T15:49:30.542Z,18.63
2023-05-07T15:51:57.696Z,18.72
2023-05-07T15:54:24.969Z,18.87
2023-05-07T15:56:52.007Z,18.91
2023-05-07T15:59:18.868Z,18.95
2023-05-07T16:01:45.833Z,19.03
2023-05-07T16:04:12.638Z,19.34
2023-05-07T16:06:39.505Z,19.21
2023-05-07T16:09:06.164Z,19.43
2023-05-07T16:11:33.377Z,19.53
2023-05-07T16:14:03.030Z,19.38
2023-05-07T16:16:33.019Z,19.48
2023-05-07T16:18:59.676Z,19.74
2023-05-07T16:21:26.811Z,19.62
2023-05-07T16:23:53.864Z,19.71
2023-05-07T16:26:20.544Z,19.87
2023-05-07T16:28:47.461Z,19.92
2023-05-07T16:31:14.370Z,19.89
2023-05-07T16:33:41.089Z,19.98
2023-05-07T16:36:08.137Z,20.16
2023-05-07T16:38:34.931Z,20.12
2023-05-07T16:41:01.735Z,20.09
2023-05-07T16:43:28.603Z,20.25
2023-05-07T16:45:55.493Z,20.22
2023-05-07T16:48:22.746Z,20.23
2023-05-07T16:50:49.417Z,20.38
2023-05-07T16:53:16.420Z,20.62
2023-05-07T16:55:43.251Z,20.67
2023-05-07T16:58:10.748Z,20.82
2023-05-07T17:00:48.938Z,20.94
2023-05-07T17:03:16.786Z,20.95
2023-05-07T17:05:44.253Z,20.90
2023-05-07T17:08:12.853Z,20.98
2023-05-07T17:10:39.792Z,20.90
2023-05-07T17:13:07.088Z,20.93
2023-05-07T17:15:33.993Z,21.03
2023-05-07T17:18:00.983Z,21.07
2023-05-07T17:20:28.157Z,20.97
2023-05-07T17:22:55.114Z,20.86
2023-05-07T17:25:22.677Z,20.91
2023-05-07T17:27:49.943Z,20.74
2023-05-07T17:30:16.712Z,20.75
2023-05-07T17:32:44.005Z,20.62
2023-05-07T17:35:10.796Z,20.73
2023-05-07T17:37:37.750Z,21.07
2023-05-07T17:40:05.078Z,20.91
2023-05-07T17:42:32.169Z,21.22
2023-05-07T17:44:58.815Z,20.97
2023-05-07T17:47:25.544Z,20.83
2023-05-07T17:49:52.244Z,20.89
2023-05-07T17:52:19.015Z,21.05
2023-05-07T17:54:46.121Z,20.99
2023-05-07T17:57:12.978Z,20.92
2023-05-07T17:59:39.784Z,20.96
2023-05-07T18:02:06.504Z,21.22
2023-05-07T18:04:33.316Z,20.78
2023-05-07T18:07:00.564Z,20.87
2023-05-07T18:09:27.301Z,20.77
2023-05-07T18:11:54.037Z,21.00
2023-05-07T18:14:23.535Z,20.94
2023-05-07T18:16:50.352Z,20.76
2023-05-07T18:19:17.354Z,20.79
2023-05-07T18:21:44.099Z,20.56
2023-05-07T18:24:10.917Z,20.75
2023-05-07T18:26:37.696Z,20.72
2023-05-07T18:29:04.405Z,20.81
2023-05-07T18:31:31.427Z,20.67
2023-05-07T18:33:58.304Z,20.78
2023-05-07T18:36:26.304Z,20.78
2023-05-07T18:38:53.689Z,20.66
2023-05-07T18:41:21.064Z,20.83
2023-05-07T18:43:47.890Z,20.72
2023-05-07T18:46:14.705Z,20.65
2023-05-07T18:48:41.498Z,20.66
2023-05-07T18:51:11.856Z,20.64
2023-05-07T18:58:21.995Z,20.71
2023-05-07T19:00:51.326Z,20.67
2023-05-07T19:03:18.192Z,20.74
2023-05-07T19:05:45.260Z,20.97
2023-05-07T19:08:12.081Z,20.89
2023-05-07T19:10:39.867Z,21.00
2023-05-07T19:13:07.039Z,21.05
2023-05-07T19:15:33.989Z,20.77
2023-05-07T19:18:00.913Z,20.73
2023-05-07T19:20:28.398Z,21.00
2023-05-07T19:22:55.464Z,21.08
2023-05-07T19:25:22.300Z,21.01
2023-05-07T19:27:50.246Z,21.00
2023-05-07T19:30:17.202Z,20.95
2023-05-07T19:32:43.943Z,21.03
2023-05-07T19:35:10.777Z,21.11
2023-05-07T19:37:38.590Z,21.21
2023-05-07T19:40:06.387Z,21.18
2023-05-07T19:42:34.110Z,21.36
2023-05-07T19:45:01.260Z,21.37
2023-05-07T19:47:28.029Z,21.33
2023-05-07T19:49:54.628Z,21.35
2023-05-07T19:52:21.732Z,21.55
2023-05-07T19:54:48.461Z,21.64
2023-05-07T19:57:16.903Z,21.79
2023-05-07T19:59:43.669Z,21.54
2023-05-07T20:02:11.419Z,21.60
2023-05-07T20:04:38.456Z,21.62
2023-05-07T20:07:05.543Z,21.65
2023-05-07T20:09:33.044Z,21.63
2023-05-07T20:11:59.763Z,21.57
2023-05-07T20:14:26.839Z,21.60
2023-05-07T20:16:53.625Z,21.61
2023-05-07T20:19:20.349Z,21.87
2023-05-07T20:21:47.185Z,21.77
2023-05-07T20:24:13.970Z,21.83
2023-05-07T20:26:40.791Z,21.69
2023-05-07T20:29:08.260Z,21.70
2023-05-07T20:31:35.126Z,21.79
2023-05-07T20:38:51.845Z,21.77
2023-05-07T20:41:20.199Z,21.98
2023-05-07T20:43:47.952Z,21.79
2023-05-07T20:46:14.682Z,21.78
2023-05-07T20:48:41.754Z,21.92
2023-05-07T20:51:12.880Z,21.96
2023-05-07T20:53:40.137Z,21.79
2023-05-07T20:56:07.013Z,22.01
2023-05-07T20:58:33.914Z,22.03
2023-05-07T21:01:00.862Z,22.13
2023-05-07T21:03:27.757Z,22.17
2023-05-07T21:05:55.759Z,22.31
2023-05-07T21:08:22.723Z,22.33
2023-05-07T21:10:50.404Z,22.43
2023-05-07T21:13:18.106Z,22.42
2023-05-07T21:15:45.440Z,22.54
2023-05-07T21:18:12.642Z,22.59
2023-05-07T21:20:39.546Z,22.55
2023-05-07T21:23:06.876Z,22.62
2023-05-07T21:25:38.084Z,22.58
2023-05-07T21:32:49.313Z,22.42
2023-05-07T21:35:16.345Z,22.51
2023-05-07T21:37:43.403Z,22.64
2023-05-07T21:40:11.023Z,22.81
2023-05-07T21:42:38.106Z,22.79
2023-05-07T21:45:05.718Z,22.77
2023-05-07T21:47:32.911Z,22.76
2023-05-07T21:50:00.607Z,22.78
2023-05-07T21:52:27.433Z,22.94
2023-05-07T21:54:54.245Z,22.98
2023-05-07T21:57:21.501Z,23.03
2023-05-07T21:59:49.432Z,23.06
2023-05-07T22:07:05.800Z,23.04
2023-05-07T22:09:33.448Z,23.21
2023-05-07T22:12:00.597Z,23.15
2023-05-07T22:14:27.516Z,23.30
2023-05-07T22:16:54.395Z,23.23
2023-05-07T22:19:23.414Z,23.32
2023-05-07T22:21:53.313Z,23.14
2023-05-07T22:24:22.514Z,23.25
2023-05-07T22:26:51.850Z,23.39
2023-05-07T22:29:23.340Z,23.25
2023-05-07T22:31:53.385Z,23.20
2023-05-07T22:34:23.379Z,23.34
2023-05-07T22:36:53.394Z,23.31
2023-05-07T22:39:22.851Z,23.45
2023-05-07T22:41:52.894Z,23.44
2023-05-07T22:44:22.069Z,23.36
2023-05-07T22:46:52.362Z,23.22
2023-05-07T22:49:21.487Z,23.18
2023-05-07T22:51:51.447Z,23.22
2023-05-07T22:54:20.540Z,23.31
2023-05-07T22:56:49.440Z,23.32
2023-05-07T22:59:19.852Z,23.36
2023-05-07T23:01:48.237Z,23.47
2023-05-07T23:04:17.726Z,23.33
2023-05-07T23:06:46.543Z,23.46
2023-05-07T23:09:15.440Z,23.35
2023-05-07T23:11:45.455Z,23.39
2023-05-07T23:14:13.963Z,23.19
2023-05-07T23:16:43.445Z,23.12
2023-05-07T23:26:47.823Z,23.16
2023-05-07T23:29:14.667Z,23.10
2023-05-07T23:31:41.604Z,22.99
2023-05-07T23:34:08.526Z,23.06
2023-05-07T23:36:35.382Z,23.03
2023-05-07T23:39:02.553Z,23.14
2023-05-07T23:41:29.325Z,23.03
2023-05-07T23:43:56.231Z,23.32
2023-05-07T23:46:23.205Z,23.23
2023-05-07T23:48:50.098Z,23.15
2023-05-07T23:51:17.014Z,23.20
2023-05-07T23:53:43.993Z,23.16
2023-05-07T23:56:11.419Z,23.25
2023-05-07T23:58:38.336Z,23.28
